Time;durP1;ratioP1;P1;durP2;ratioP2;P2;SDS_P1;SDS_P2;PMS_P1;PMS_P2;Temp;Humidity;BMP_temperature;BMP_pressure;BME280_temperature;BME280_humidity;BME280_pressure;Samples;Min_cycle;Max_cycle;Signal;HPM_P1;HPM_P2
2021/03/07 00:02:21;;;;;;;10.63;6.88;;;-2.00;99.90;;;;;;5073946;23;20138;-78
2021/03/07 00:04:52;;;;;;;10.25;6.70;;;-2.00;99.90;;;;;;4946599;28;20438;-78
2021/03/07 00:07:24;;;;;;;10.98;6.20;;;-2.00;99.90;;;;;;4963065;28;20049;-78
2021/03/07 00:09:51;;;;;;;8.80;5.88;;;-2.00;99.90;;;;;;4942719;29;20047;-78
2021/03/07 00:12:18;;;;;;;9.52;6.07;;;-2.00;99.90;;;;;;4943094;29;20051;-78
2021/03/07 00:14:50;;;;;;;10.20;6.95;;;-2.00;99.90;;;;;;4943274;29;20062;-78
2021/03/07 00:17:21;;;;;;;10.30;6.20;;;-2.00;99.90;;;;;;4926656;29;20054;-78
2021/03/07 00:19:53;;;;;;;9.60;6.38;;;-2.00;99.90;;;;;;5743805;23;20092;-78
2021/03/07 00:22:25;;;;;;;11.18;6.32;;;-2.10;99.90;;;;;;4937505;29;20056;-78
2021/03/07 00:24:52;;;;;;;8.13;5.85;;;-2.00;99.90;;;;;;4938453;29;20044;-78
2021/03/07 00:27:23;;;;;;;10.45;5.88;;;-2.10;99.90;;;;;;4937726;29;20055;-78
2021/03/07 00:29:55;;;;;;;11.40;6.38;;;-2.10;99.90;;;;;;4981140;23;20055;-78
2021/03/07 00:32:27;;;;;;;9.35;5.88;;;-2.10;99.90;;;;;;4906903;29;20055;-78
2021/03/07 00:34:53;;;;;;;11.38;6.40;;;-2.10;99.90;;;;;;4906241;29;20491;-78
2021/03/07 00:37:25;;;;;;;12.18;7.78;;;-2.10;99.90;;;;;;4907129;29;20048;-79
2021/03/07 00:39:52;;;;;;;10.32;6.18;;;-2.10;99.90;;;;;;4922253;29;20063;-78
2021/03/07 00:42:23;;;;;;;11.05;6.53;;;-2.20;99.90;;;;;;4922220;29;20044;-78
2021/03/07 00:44:55;;;;;;;11.57;7.22;;;-2.20;99.90;;;;;;4922253;29;20056;-78
2021/03/07 00:47:21;;;;;;;11.70;7.20;;;-2.20;99.90;;;;;;4905988;29;20072;-78
2021/03/07 00:49:53;;;;;;;11.75;7.20;;;-2.20;99.90;;;;;;4922087;29;20058;-78
2021/03/07 00:52:24;;;;;;;12.73;7.75;;;-2.20;99.90;;;;;;4907276;29;20507;-78
2021/03/07 00:54:56;;;;;;;10.20;6.50;;;-2.20;99.90;;;;;;4907186;29;20131;-78
2021/03/07 00:57:22;;;;;;;9.77;6.05;;;-2.30;99.90;;;;;;4906554;29;20050;-78
2021/03/07 00:59:54;;;;;;;11.73;6.32;;;-2.30;99.90;;;;;;4922285;29;20047;-78
2021/03/07 01:02:21;;;;;;;10.63;6.30;;;-2.40;99.90;;;;;;4921852;29;20549;-78
2021/03/07 01:04:47;;;;;;;13.98;5.72;;;-2.40;99.90;;;;;;4922346;29;20099;-78
2021/03/07 01:07:14;;;;;;;10.13;5.82;;;-2.40;99.90;;;;;;4922329;29;20480;-78
2021/03/07 01:09:41;;;;;;;9.15;5.22;;;-2.40;99.90;;;;;;4906228;29;20100;-78
2021/03/07 01:12:07;;;;;;;9.43;5.63;;;-2.50;99.90;;;;;;4921713;29;20515;-78
2021/03/07 01:14:39;;;;;;;9.70;5.55;;;-2.50;99.90;;;;;;4937369;29;20044;-78
2021/03/07 01:17:10;;;;;;;8.10;5.40;;;-2.50;99.90;;;;;;4907200;29;20124;-78
2021/03/07 01:22:40;;;;;;;8.70;5.68;;;-2.60;99.90;;;;;;5358239;23;20521;-78
2021/03/07 01:25:12;;;;;;;8.52;5.18;;;-2.60;99.90;;;;;;4947983;28;20038;-78
2021/03/07 01:27:39;;;;;;;7.60;5.28;;;-2.60;99.90;;;;;;4944132;28;20514;-78
2021/03/07 01:30:08;;;;;;;8.82;5.47;;;-2.60;99.90;;;;;;4927175;29;20075;-78
2021/03/07 01:32:39;;;;;;;9.35;5.88;;;-2.60;99.90;;;;;;4926304;29;20115;-78
2021/03/07 01:35:06;;;;;;;8.65;5.30;;;-2.60;99.90;;;;;;4925130;29;20462;-79
2021/03/07 01:37:33;;;;;;;9.18;6.28;;;-2.60;99.90;;;;;;4924763;29;20138;-78
2021/03/07 01:48:53;;;;;;;8.88;5.43;;;-2.70;99.90;;;;;;5892220;23;20102;-79
2021/03/07 01:51:21;;;;;;;8.30;5.75;;;-2.60;99.90;;;;;;4924912;29;20047;-78
2021/03/07 01:53:48;;;;;;;8.57;5.70;;;-2.60;99.90;;;;;;4924758;29;20138;-78
2021/03/07 01:56:17;;;;;;;8.63;5.22;;;-2.70;99.90;;;;;;4924377;29;20075;-79
2021/03/07 01:58:50;;;;;;;;;;;-2.70;99.90;;;;;;4940419;29;20047;-78
2021/03/07 02:05:14;;;;;;;9.43;5.95;;;-2.70;99.90;;;;;;4940509;29;20111;-78
2021/03/07 02:07:41;;;;;;;9.35;6.20;;;-2.70;99.90;;;;;;4924524;29;20051;-78
2021/03/07 02:50:12;;;;;;;10.25;5.90;;;-3.10;99.90;;;;;;5893343;23;20055;-79
2021/03/07 02:52:52;;;;;;;7.70;5.30;;;-3.10;99.90;;;;;;4942860;29;20058;-78
2021/03/07 02:55:20;;;;;;;11.35;5.88;;;-3.10;99.90;;;;;;4927899;29;20053;-78
2021/03/07 03:03:32;;;;;;;10.38;5.60;;;-3.10;99.90;;;;;;4921835;29;20051;-79
2021/03/07 03:06:05;;;;;;;10.25;5.45;;;-3.10;99.90;;;;;;4924730;29;20040;-78
2021/03/07 03:08:39;;;;;;;9.25;4.72;;;-3.10;99.90;;;;;;4924310;29;20126;-78
2021/03/07 03:11:10;;;;;;;;;;;-3.10;99.90;;;;;;4925288;29;20529;-78
2021/03/07 03:13:43;;;;;;;9.23;5.10;;;-3.10;99.90;;;;;;4924303;29;19923;-78
2021/03/07 03:16:10;;;;;;;8.00;4.95;;;-3.20;99.90;;;;;;4908186;29;20039;-78
2021/03/07 03:44:59;;;;;;;12.18;6.63;;;-3.30;99.90;;;;;;5644082;23;20066;-78
2021/03/07 03:47:31;;;;;;;7.75;5.43;;;-3.30;99.90;;;;;;4927599;29;20051;-78
2021/03/07 03:52:53;;;;;;;12.70;6.57;;;-3.40;99.90;;;;;;5335264;23;20098;-78
2021/03/07 03:55:25;;;;;;;10.82;6.30;;;-3.40;99.90;;;;;;4926251;29;20091;-78
2021/03/07 04:39:05;;;;;;;13.40;7.32;;;-3.60;99.90;;;;;;5353977;23;20113;-78
2021/03/07 04:41:37;;;;;;;9.27;5.53;;;-3.60;99.90;;;;;;4941560;29;20054;-78
2021/03/07 04:44:03;;;;;;;14.40;8.23;;;-3.60;99.90;;;;;;4925729;29;20102;-78
2021/03/07 04:46:35;;;;;;;14.45;7.70;;;-3.60;99.90;;;;;;4926274;28;20078;-78
2021/03/07 05:16:48;;;;;;;14.98;6.25;;;-3.70;99.90;;;;;;6026330;23;20885;-77
2021/03/07 05:19:15;;;;;;;10.73;5.10;;;-3.70;99.90;;;;;;4924778;29;20043;-76
2021/03/07 05:21:46;;;;;;;9.27;5.75;;;-3.70;99.90;;;;;;4898109;29;20056;-76
2021/03/07 05:24:18;;;;;;;11.40;6.47;;;-3.70;99.90;;;;;;4914783;29;20071;-76
2021/03/07 05:26:49;;;;;;;8.70;6.00;;;-3.70;99.90;;;;;;4882895;29;20048;-76
2021/03/07 05:29:15;;;;;;;12.07;6.05;;;-3.70;99.90;;;;;;4897677;29;20468;-77
2021/03/07 05:31:47;;;;;;;12.75;6.97;;;-3.70;99.90;;;;;;4897727;29;20044;-76
2021/03/07 05:34:18;;;;;;;9.30;5.90;;;-3.70;99.90;;;;;;4883031;29;20560;-76
2021/03/07 05:36:44;;;;;;;12.30;6.38;;;-3.70;99.90;;;;;;4882107;29;20419;-76
2021/03/07 05:39:15;;;;;;;12.95;6.50;;;-3.80;99.90;;;;;;4897282;29;20076;-76
2021/03/07 05:41:47;;;;;;;11.30;6.72;;;-3.80;99.90;;;;;;4882696;29;20054;-77
2021/03/07 05:44:18;;;;;;;10.23;6.78;;;-3.80;99.90;;;;;;4897570;29;20123;-76
2021/03/07 05:46:45;;;;;;;9.10;7.05;;;-3.80;99.90;;;;;;4882130;29;20062;-76
2021/03/07 05:49:11;;;;;;;11.88;7.57;;;-3.80;99.90;;;;;;4881674;29;20048;-76
2021/03/07 05:51:44;;;;;;;9.35;6.40;;;-3.80;99.90;;;;;;4882582;29;20051;-76
2021/03/07 05:54:16;;;;;;;9.43;6.85;;;-3.80;99.90;;;;;;4897279;29;20086;-76
2021/03/07 05:56:52;;;;;;;11.45;6.40;;;-3.90;99.90;;;;;;4882477;29;20048;-76
2021/03/07 05:59:24;;;;;;;13.80;7.07;;;-3.80;99.90;;;;;;4881570;29;20083;-76
2021/03/07 06:01:56;;;;;;;11.18;6.63;;;-3.80;99.90;;;;;;4897169;29;20399;-76
2021/03/07 06:04:27;;;;;;;11.00;6.80;;;-3.80;99.90;;;;;;4882398;29;20127;-76
2021/03/07 06:06:53;;;;;;;14.82;8.90;;;-3.80;99.90;;;;;;4897440;29;20360;-76
2021/03/07 06:09:21;;;;;;;14.35;9.48;;;-3.80;99.90;;;;;;4881449;29;20055;-77
2021/03/07 06:11:54;;;;;;;18.20;9.18;;;-3.80;99.90;;;;;;4891342;29;20050;-77
2021/03/07 06:14:29;;;;;;;35.40;16.70;;;-3.70;99.90;;;;;;4896971;29;20054;-77
2021/03/07 06:17:04;;;;;;;48.15;18.88;;;-3.70;99.90;;;;;;4910322;29;20040;-77
2021/03/07 06:19:54;;;;;;;38.88;16.65;;;-3.80;99.90;;;;;;4907173;29;20040;-76
2021/03/07 06:22:29;;;;;;;91.50;30.80;;;-3.80;99.90;;;;;;4900480;29;20435;-77
2021/03/07 06:25:04;;;;;;;54.00;22.05;;;-3.80;99.90;;;;;;4890894;29;20135;-77
2021/03/07 06:27:30;;;;;;;40.85;16.13;;;-3.70;99.90;;;;;;4893633;29;20040;-77
2021/03/07 06:30:20;;;;;;;36.35;14.32;;;-3.70;99.90;;;;;;4891926;29;20048;-76
2021/03/07 06:32:53;;;;;;;29.55;12.63;;;-3.70;99.90;;;;;;4911060;29;20051;-76
2021/03/07 06:35:31;;;;;;;35.55;14.95;;;-3.70;99.90;;;;;;4908669;29;20140;-77
2021/03/07 06:38:08;;;;;;;63.42;21.30;;;-3.70;99.90;;;;;;4883577;29;20068;-76
2021/03/07 06:40:43;;;;;;;156.20;49.15;;;-3.70;99.90;;;;;;4895138;29;20412;-77
2021/03/07 06:43:27;;;;;;;115.68;41.20;;;-3.60;99.90;;;;;;4900786;29;20059;-76
2021/03/07 06:45:58;;;;;;;35.92;13.85;;;-3.60;99.90;;;;;;4900752;29;20084;-76
2021/03/07 06:48:36;;;;;;;40.95;21.08;;;-3.60;99.90;;;;;;4932240;29;20439;-76
2021/03/07 06:51:07;;;;;;;69.50;31.95;;;-3.60;99.90;;;;;;4914847;29;20052;-76
2021/03/07 06:53:41;;;;;;;52.75;25.33;;;-3.70;99.90;;;;;;4915642;29;20059;-76
2021/03/07 06:56:08;;;;;;;33.85;17.10;;;-3.60;99.90;;;;;;4899701;29;20067;-76
2021/03/07 06:58:39;;;;;;;37.42;17.45;;;-3.70;99.90;;;;;;4915468;29;20043;-76
2021/03/07 07:01:16;;;;;;;38.35;17.63;;;-3.70;99.90;;;;;;4915859;29;20048;-76
2021/03/07 07:03:57;;;;;;;35.10;20.33;;;-3.60;99.90;;;;;;4900557;29;20044;-76
2021/03/07 07:06:31;;;;;;;31.00;17.23;;;-3.60;99.90;;;;;;4900445;29;20111;-76
2021/03/07 07:09:03;;;;;;;36.05;19.45;;;-3.60;99.90;;;;;;4916068;29;20043;-76
2021/03/07 07:11:46;;;;;;;33.13;18.73;;;-3.50;99.90;;;;;;4917840;29;20527;-76
2021/03/07 07:14:41;;;;;;;21.95;11.98;;;-3.40;99.90;;;;;;4934885;29;20048;-76
2021/03/07 07:17:19;;;;;;;18.42;10.32;;;-3.30;99.90;;;;;;4934656;29;20048;-76
2021/03/07 07:19:51;;;;;;;17.42;9.88;;;-3.20;99.90;;;;;;4919330;29;20115;-76
2021/03/07 07:22:22;;;;;;;16.73;8.25;;;-3.10;99.90;;;;;;4903946;29;20054;-76
2021/03/07 07:24:53;;;;;;;18.17;9.85;;;-3.00;99.90;;;;;;4903728;29;20484;-77
2021/03/07 07:27:25;;;;;;;16.88;9.13;;;-2.90;99.90;;;;;;4904029;29;20094;-76
2021/03/07 07:29:56;;;;;;;23.33;10.82;;;-2.80;99.90;;;;;;4918429;29;20082;-76
2021/03/07 07:32:40;;;;;;;26.77;13.02;;;-2.70;99.90;;;;;;4903662;29;20059;-76
2021/03/07 07:35:25;;;;;;;23.92;12.80;;;-2.60;99.90;;;;;;4918654;29;20474;-76
2021/03/07 07:38:01;;;;;;;21.38;13.25;;;-2.50;99.90;;;;;;4903294;29;20051;-76
2021/03/07 07:40:43;;;;;;;15.55;10.23;;;-2.50;99.90;;;;;;4919251;29;20422;-76
2021/03/07 07:43:15;;;;;;;22.58;11.13;;;-2.50;99.90;;;;;;4903434;29;20047;-76
2021/03/07 07:45:46;;;;;;;16.83;8.52;;;-2.40;99.90;;;;;;4903514;29;20082;-76
2021/03/07 07:48:34;;;;;;;18.98;9.18;;;-2.40;99.90;;;;;;4903250;29;20062;-77
2021/03/07 07:51:33;;;;;;;15.88;10.40;;;-2.30;99.90;;;;;;4903392;29;20142;-77
2021/03/07 07:54:07;;;;;;;20.85;12.65;;;-2.20;99.90;;;;;;4903333;29;20059;-76
2021/03/07 07:56:40;;;;;;;;;;;-2.20;99.90;;;;;;4903635;29;20119;-77
2021/03/07 07:59:08;;;;;;;22.73;10.70;;;-2.10;99.90;;;;;;4902107;29;19923;-77
2021/03/07 08:01:52;;;;;;;18.65;10.55;;;-2.10;99.90;;;;;;4917896;29;20058;-76
2021/03/07 08:04:29;;;;;;;22.48;12.57;;;-2.00;99.90;;;;;;4918615;29;20048;-76
2021/03/07 08:07:01;;;;;;;24.05;14.85;;;-1.90;99.90;;;;;;4917583;29;20079;-76
2021/03/07 08:09:38;;;;;;;24.45;14.68;;;-1.80;99.90;;;;;;4902472;29;20054;-77
2021/03/07 08:12:42;;;;;;;31.40;13.32;;;-1.70;99.90;;;;;;4902054;29;20419;-77
2021/03/07 08:15:26;;;;;;;21.60;12.63;;;-1.60;99.90;;;;;;4917502;29;20143;-77
2021/03/07 08:18:00;;;;;;;15.70;10.45;;;-1.50;99.90;;;;;;4902147;29;20056;-77
2021/03/07 08:20:37;;;;;;;;;;;-1.40;99.90;;;;;;4903125;29;20078;-77
2021/03/07 08:23:05;;;;;;;16.35;10.15;;;-1.30;99.90;;;;;;4902407;29;20337;-79
2021/03/07 08:25:51;;;;;;;25.90;16.60;;;-1.20;99.90;;;;;;4915990;29;20052;-79
2021/03/07 08:28:26;;;;;;;18.38;11.70;;;-1.10;99.90;;;;;;4884496;29;20052;-78
2021/03/07 08:31:02;;;;;;;18.42;10.43;;;-0.90;99.90;;;;;;4900536;29;20052;-78
2021/03/07 08:33:38;;;;;;;23.25;13.85;;;-0.80;99.90;;;;;;4901904;29;20503;-78
2021/03/07 08:36:15;;;;;;;17.45;11.40;;;-0.70;99.90;;;;;;4899897;29;20050;-79
2021/03/07 08:38:53;;;;;;;17.88;10.40;;;-0.60;99.90;;;;;;4900069;29;20098;-79
2021/03/07 08:41:26;;;;;;;15.48;11.10;;;-0.40;99.90;;;;;;4885073;29;20051;-79
2021/03/07 08:43:59;;;;;;;18.25;9.85;;;-0.40;99.90;;;;;;4884634;29;20044;-79
2021/03/07 08:46:46;;;;;;;13.18;9.48;;;-0.30;99.90;;;;;;4898647;29;20059;-79
2021/03/07 08:49:23;;;;;;;14.95;10.65;;;-0.20;99.90;;;;;;4898425;29;20533;-78
2021/03/07 08:52:04;;;;;;;15.88;10.65;;;-0.10;99.90;;;;;;4898781;29;20821;-78
2021/03/07 08:54:33;;;;;;;14.93;10.07;;;0.00;99.90;;;;;;4898463;29;20144;-78
2021/03/07 08:57:07;;;;;;;14.60;10.43;;;0.10;99.90;;;;;;4898450;29;20516;-79
2021/03/07 08:59:39;;;;;;;14.60;9.90;;;0.20;99.90;;;;;;4883278;29;20040;-78
2021/03/07 09:02:10;;;;;;;14.73;10.18;;;0.30;99.90;;;;;;4884095;29;20132;-79
2021/03/07 09:04:41;;;;;;;14.80;9.77;;;0.30;99.90;;;;;;4883812;29;20543;-79
2021/03/07 09:07:13;;;;;;;17.35;9.98;;;0.50;99.90;;;;;;4900080;29;20087;-79
2021/03/07 09:09:43;;;;;;;14.80;10.18;;;0.50;99.90;;;;;;4885602;29;20048;-78
2021/03/07 09:12:17;;;;;;;14.15;8.82;;;0.60;99.90;;;;;;4919564;29;20056;-77
2021/03/07 09:14:48;;;;;;;;;;;0.70;99.90;;;;;;4905214;29;20504;-77
2021/03/07 09:17:21;;;;;;;16.40;10.32;;;0.80;99.90;;;;;;4904436;29;20294;-77
2021/03/07 09:19:52;;;;;;;16.75;9.75;;;1.00;99.90;;;;;;4905520;29;20044;-78
2021/03/07 09:22:20;;;;;;;17.15;10.00;;;1.10;99.90;;;;;;4905050;29;20044;-78
2021/03/07 09:24:57;;;;;;;15.93;11.45;;;1.20;99.90;;;;;;4887351;29;20052;-78
2021/03/07 09:27:34;;;;;;;15.13;10.40;;;1.20;99.90;;;;;;4889639;29;20059;-77
2021/03/07 09:30:17;;;;;;;16.45;10.10;;;1.30;99.90;;;;;;4888323;29;20399;-77
2021/03/07 09:32:50;;;;;;;15.35;10.68;;;1.40;99.90;;;;;;4904265;29;20143;-77
2021/03/07 09:35:27;;;;;;;15.18;10.25;;;1.60;99.90;;;;;;4903482;29;20052;-77
2021/03/07 09:38:08;;;;;;;14.15;9.73;;;1.70;99.90;;;;;;4900998;29;20044;-78
2021/03/07 09:40:43;;;;;;;16.60;9.88;;;1.90;99.90;;;;;;4899734;29;20044;-78
2021/03/07 09:43:25;;;;;;;15.75;11.25;;;2.00;99.90;;;;;;4888623;29;20044;-80
2021/03/07 09:45:56;;;;;;;22.15;12.10;;;2.20;99.90;;;;;;4903854;29;20048;-78
2021/03/07 09:48:38;;;;;;;19.02;12.77;;;2.20;99.90;;;;;;4888775;29;20056;-78
2021/03/07 09:51:13;;;;;;;18.45;11.98;;;2.40;99.90;;;;;;4889276;29;20048;-78
2021/03/07 09:53:42;;;;;;;19.05;12.82;;;2.60;99.90;;;;;;4913947;29;20079;-77
2021/03/07 09:56:41;;;;;;;24.33;14.75;;;2.70;99.90;;;;;;4924152;29;20039;-78
2021/03/07 09:59:18;;;;;;;19.67;13.05;;;2.80;99.90;;;;;;4877411;29;20508;-77
2021/03/07 10:01:58;;;;;;;18.17;12.25;;;3.00;99.90;;;;;;4922604;29;20055;-78
2021/03/07 10:04:54;;;;;;;20.00;13.38;;;3.10;99.90;;;;;;4906769;29;20059;-78
2021/03/07 10:07:27;;;;;;;22.60;14.63;;;3.30;99.90;;;;;;4880681;29;20499;-78
2021/03/07 10:10:16;;;;;;;25.15;14.95;;;3.40;99.90;;;;;;4922666;29;20048;-78
2021/03/07 10:12:55;;;;;;;28.50;16.90;;;3.50;99.90;;;;;;4922639;29;20075;-78
2021/03/07 10:15:31;;;;;;;33.58;23.33;;;3.70;99.90;;;;;;4922895;29;20073;-78
2021/03/07 10:18:16;;;;;;;23.05;15.32;;;3.80;99.90;;;;;;4907725;29;20063;-78
2021/03/07 10:20:45;;;;;;;20.73;13.18;;;3.90;99.90;;;;;;4906943;29;20048;-78
2021/03/07 10:23:17;;;;;;;19.02;12.32;;;4.00;99.90;;;;;;4921810;29;20099;-78
2021/03/07 10:25:48;;;;;;;20.88;12.93;;;4.10;99.90;;;;;;4923383;29;20072;-77
2021/03/07 10:28:23;;;;;;;20.90;13.95;;;4.20;99.90;;;;;;4942878;23;20083;-77
2021/03/07 10:30:52;;;;;;;20.42;13.45;;;4.30;99.90;;;;;;4942028;28;20134;-78
2021/03/07 10:33:28;;;;;;;19.83;14.32;;;4.20;99.90;;;;;;4943524;28;20043;-78
2021/03/07 10:36:10;;;;;;;30.23;20.05;;;4.20;99.90;;;;;;4959554;28;20047;-78
2021/03/07 10:38:45;;;;;;;22.83;14.52;;;4.30;99.90;;;;;;4959817;28;20047;-78
2021/03/07 10:41:17;;;;;;;19.70;13.55;;;4.40;99.90;;;;;;4945280;28;20098;-78
2021/03/07 10:43:52;;;;;;;19.48;13.73;;;4.50;99.90;;;;;;4944991;28;20077;-77
2021/03/07 10:46:26;;;;;;;21.05;12.88;;;4.60;99.90;;;;;;4947136;28;20088;-78
2021/03/07 10:49:01;;;;;;;18.15;12.15;;;4.60;99.90;;;;;;4959183;28;20066;-78
2021/03/07 10:51:29;;;;;;;24.98;15.73;;;4.70;99.90;;;;;;4949203;28;20060;-80
2021/03/07 10:53:55;;;;;;;22.77;15.73;;;4.70;99.90;;;;;;4949462;28;20098;-78
2021/03/07 10:56:33;;;;;;;24.73;17.08;;;4.80;99.90;;;;;;4964550;28;20605;-79
2021/03/07 10:59:05;;;;;;;22.10;13.80;;;4.80;99.90;;;;;;4963563;23;20499;-79
2021/03/07 11:01:43;;;;;;;20.85;15.30;;;4.90;99.90;;;;;;4929651;29;20046;-78
2021/03/07 11:04:10;;;;;;;21.63;15.65;;;4.90;99.90;;;;;;4929163;29;20069;-78
2021/03/07 11:06:47;;;;;;;19.80;12.88;;;5.00;99.90;;;;;;4929297;29;20134;-78
2021/03/07 11:09:21;;;;;;;20.88;13.32;;;4.90;99.90;;;;;;4944628;29;20396;-78
2021/03/07 11:11:50;;;;;;;22.23;13.27;;;5.00;99.90;;;;;;4929052;29;20455;-78
2021/03/07 11:14:21;;;;;;;20.40;12.85;;;5.00;99.90;;;;;;4929196;29;20103;-77
2021/03/07 11:16:57;;;;;;;;;;;5.10;99.90;;;;;;4930117;29;20047;-78
2021/03/07 11:19:28;;;;;;;31.43;17.03;;;5.20;99.90;;;;;;4928044;29;20014;-78
2021/03/07 11:22:00;;;;;;;27.10;19.95;;;5.20;99.90;;;;;;4943947;29;20059;-78
2021/03/07 11:24:31;;;;;;;21.58;15.23;;;5.30;99.90;;;;;;4927792;29;20047;-78
2021/03/07 11:26:58;;;;;;;19.45;13.43;;;5.40;99.90;;;;;;4943775;28;20494;-78
2021/03/07 11:29:30;;;;;;;18.25;12.15;;;5.50;99.90;;;;;;4927611;29;20106;-77
2021/03/07 11:32:01;;;;;;;19.30;13.95;;;5.70;99.90;;;;;;4922913;29;20048;-77
2021/03/07 11:34:36;;;;;;;20.67;12.80;;;5.80;99.90;;;;;;4922843;29;20071;-78
2021/03/07 11:37:04;;;;;;;20.58;13.02;;;6.00;99.90;;;;;;4907402;29;20050;-78
2021/03/07 11:39:38;;;;;;;17.27;11.93;;;6.10;99.90;;;;;;4936240;29;20086;-78
2021/03/07 11:42:06;;;;;;;17.83;12.25;;;6.20;99.90;;;;;;4922469;29;20048;-78
2021/03/07 11:44:38;;;;;;;19.55;12.73;;;6.40;99.90;;;;;;4936737;29;20078;-78
2021/03/07 11:47:06;;;;;;;20.00;13.05;;;6.50;99.90;;;;;;4905866;29;20105;-78
2021/03/07 11:55:18;;;;;;;20.83;13.52;;;6.60;99.90;;;;;;4959033;23;20101;-78
2021/03/07 11:57:47;;;;;;;18.40;12.68;;;6.70;99.90;;;;;;4924003;29;20106;-78
2021/03/07 12:03:06;;;;;;;53.15;31.23;;;6.70;99.90;;;;;;5038210;23;20450;-78
2021/03/07 12:05:38;;;;;;;20.67;13.20;;;6.80;99.90;;;;;;4925898;29;20050;-78
2021/03/07 12:08:09;;;;;;;24.30;16.15;;;7.00;99.90;;;;;;4922875;29;20051;-78
2021/03/07 12:10:36;;;;;;;25.92;15.30;;;7.00;99.90;;;;;;4921190;29;20403;-79
2021/03/07 12:13:07;;;;;;;26.20;18.85;;;7.20;99.90;;;;;;4920944;29;20050;-78
2021/03/07 12:15:34;;;;;;;19.15;13.40;;;7.30;99.90;;;;;;4921089;29;20500;-78
2021/03/07 12:18:06;;;;;;;22.73;15.73;;;7.30;99.90;;;;;;4921735;29;20058;-78
2021/03/07 12:20:38;;;;;;;22.45;14.50;;;7.40;99.90;;;;;;4921056;29;20047;-78
2021/03/07 12:23:10;;;;;;;19.60;12.60;;;7.40;99.90;;;;;;4920847;29;20112;-78
2021/03/07 12:25:41;;;;;;;17.45;12.20;;;7.40;99.90;;;;;;4905767;29;20044;-78
2021/03/07 12:28:08;;;;;;;20.50;12.98;;;7.30;99.90;;;;;;4904944;29;20066;-78
2021/03/07 12:30:35;;;;;;;23.20;16.90;;;7.30;99.90;;;;;;4905102;29;20123;-78
2021/03/07 12:33:02;;;;;;;21.02;13.93;;;7.30;99.90;;;;;;4904954;29;20048;-78
2021/03/07 12:35:33;;;;;;;19.23;12.95;;;7.40;99.90;;;;;;4905845;29;20063;-78
2021/03/07 12:38:00;;;;;;;22.35;13.40;;;7.50;99.90;;;;;;4904709;29;20048;-78
2021/03/07 12:40:27;;;;;;;20.60;13.27;;;7.50;99.90;;;;;;4904921;29;20102;-78
2021/03/07 12:42:53;;;;;;;18.50;13.10;;;7.60;99.90;;;;;;4904832;29;20052;-78
2021/03/07 12:45:20;;;;;;;19.52;12.75;;;7.60;99.90;;;;;;4904761;29;20127;-78
2021/03/07 12:50:54;;;;;;;17.88;12.18;;;7.80;99.90;;;;;;5214470;23;20433;-78
2021/03/07 12:53:26;;;;;;;19.20;13.63;;;7.90;99.90;;;;;;4960802;29;20039;-77
2021/03/07 12:55:54;;;;;;;19.42;12.88;;;7.90;99.90;;;;;;4929166;29;20051;-78
2021/03/07 12:58:21;;;;;;;19.55;13.05;;;7.80;99.90;;;;;;4929190;29;20074;-77
2021/03/07 13:00:47;;;;;;;19.23;13.15;;;7.90;99.90;;;;;;4929324;29;20053;-77
2021/03/07 13:03:14;;;;;;;19.30;14.05;;;7.90;99.90;;;;;;4926326;29;20054;-78
2021/03/07 13:05:41;;;;;;;19.80;13.25;;;8.00;99.90;;;;;;4922828;29;20521;-77
2021/03/07 13:08:10;;;;;;;20.15;13.13;;;8.10;99.90;;;;;;4923147;29;20400;-77
2021/03/07 13:10:37;;;;;;;18.58;12.00;;;8.30;99.90;;;;;;4938453;29;20085;-78
2021/03/07 13:13:04;;;;;;;19.65;12.25;;;8.50;99.90;;;;;;4938366;29;20510;-77
2021/03/07 13:15:31;;;;;;;19.67;13.23;;;8.40;99.90;;;;;;4922357;29;20146;-77
2021/03/07 13:17:57;;;;;;;21.95;12.95;;;8.50;99.90;;;;;;4922331;29;20043;-78
2021/03/07 13:20:24;;;;;;;23.50;11.73;;;8.40;99.90;;;;;;4922686;29;20047;-78
2021/03/07 13:22:56;;;;;;;20.15;12.48;;;8.40;99.90;;;;;;4938752;29;20050;-78
2021/03/07 13:25:22;;;;;;;21.02;13.60;;;8.50;99.90;;;;;;4922657;29;20051;-78
2021/03/07 13:27:54;;;;;;;21.08;13.57;;;8.80;99.90;;;;;;4955253;29;20098;-78
2021/03/07 13:30:26;;;;;;;18.85;13.00;;;8.80;99.90;;;;;;4938239;29;20047;-78
2021/03/07 13:32:58;;;;;;;20.75;13.05;;;8.90;99.90;;;;;;4938297;29;20055;-78
2021/03/07 13:35:30;;;;;;;19.25;13.15;;;8.90;99.90;;;;;;4937820;29;20054;-78
2021/03/07 13:38:02;;;;;;;23.33;13.48;;;9.00;99.90;;;;;;4938728;29;20051;-77
2021/03/07 13:40:34;;;;;;;22.33;13.57;;;9.10;99.90;;;;;;4938770;29;20098;-79
2021/03/07 13:43:02;;;;;;;21.48;12.35;;;9.20;99.90;;;;;;4938200;29;20046;-78
2021/03/07 13:45:30;;;;;;;18.55;13.18;;;9.30;99.90;;;;;;4937831;29;20498;-78
2021/03/07 13:48:02;;;;;;;22.00;13.25;;;9.30;99.70;;;;;;4937941;29;20105;-78
2021/03/07 13:50:35;;;;;;;19.93;12.30;;;9.30;98.80;;;;;;4922741;29;20467;-77
2021/03/07 13:53:02;;;;;;;18.63;11.90;;;9.30;97.80;;;;;;4922031;29;20340;-78
2021/03/07 13:55:34;;;;;;;19.50;12.95;;;9.30;97.20;;;;;;4937609;29;20035;-78
2021/03/07 13:58:06;;;;;;;20.35;13.07;;;9.40;98.70;;;;;;4937778;29;20098;-78
2021/03/07 14:00:38;;;;;;;17.98;12.35;;;9.40;96.40;;;;;;4953788;29;20495;-78
2021/03/07 14:03:10;;;;;;;19.02;12.25;;;9.40;96.80;;;;;;4922349;29;20047;-78
2021/03/07 14:05:36;;;;;;;19.58;13.20;;;9.40;96.20;;;;;;4937899;29;20058;-78
2021/03/07 14:08:08;;;;;;;22.42;13.38;;;9.50;96.00;;;;;;4938377;29;20057;-78
2021/03/07 14:10:35;;;;;;;16.63;11.80;;;9.50;94.00;;;;;;4937693;29;20106;-77
2021/03/07 14:13:07;;;;;;;20.67;12.60;;;9.50;95.20;;;;;;4937431;29;20079;-77
2021/03/07 14:15:39;;;;;;;19.48;12.68;;;9.50;95.20;;;;;;4938460;29;20050;-78
2021/03/07 14:18:05;;;;;;;19.33;12.15;;;9.50;95.10;;;;;;4954801;29;20521;-78
2021/03/07 14:20:37;;;;;;;19.85;11.88;;;9.60;95.30;;;;;;4937375;29;20051;-78
2021/03/07 14:23:04;;;;;;;18.17;11.65;;;9.60;93.60;;;;;;4937709;29;20055;-79
2021/03/07 14:25:36;;;;;;;21.33;12.90;;;9.60;93.40;;;;;;4938318;29;20095;-78
2021/03/07 14:28:09;;;;;;;15.98;11.57;;;9.60;91.90;;;;;;4922448;29;20058;-78
2021/03/07 14:30:40;;;;;;;19.17;12.00;;;9.70;93.60;;;;;;4922613;29;20047;-78
2021/03/07 14:33:19;;;;;;;17.88;12.13;;;9.70;93.20;;;;;;4918630;29;20086;-78
2021/03/07 14:35:51;;;;;;;18.63;12.13;;;9.70;92.30;;;;;;4934378;29;20507;-77
2021/03/07 14:38:22;;;;;;;18.40;12.15;;;9.70;92.00;;;;;;4918066;29;20050;-78
2021/03/07 14:40:54;;;;;;;17.40;11.63;;;9.80;92.40;;;;;;4903504;29;20036;-77
2021/03/07 14:43:26;;;;;;;16.02;12.20;;;9.90;92.80;;;;;;4903673;29;20131;-78
2021/03/07 14:45:57;;;;;;;17.05;11.10;;;10.00;92.30;;;;;;4903633;29;20059;-78
2021/03/07 14:48:29;;;;;;;18.73;11.85;;;9.90;92.10;;;;;;4919303;29;20046;-78
2021/03/07 14:50:56;;;;;;;18.40;12.50;;;9.90;92.80;;;;;;4902561;29;20059;-78
2021/03/07 14:53:24;;;;;;;20.90;12.70;;;9.70;92.30;;;;;;4902576;29;20047;-78
2021/03/07 14:55:55;;;;;;;16.40;12.60;;;9.50;92.40;;;;;;4921991;29;20050;-78
2021/03/07 14:58:22;;;;;;;20.08;12.25;;;9.30;93.30;;;;;;4937262;29;20051;-78
2021/03/07 15:00:53;;;;;;;18.88;12.10;;;9.20;92.70;;;;;;4919181;29;20518;-78
2021/03/07 15:03:20;;;;;;;19.67;12.27;;;9.10;93.40;;;;;;4902677;29;20098;-78
2021/03/07 15:05:47;;;;;;;19.67;12.50;;;9.00;94.20;;;;;;4918145;29;20051;-78
2021/03/07 15:08:18;;;;;;;18.73;11.93;;;8.90;95.40;;;;;;4920723;29;20423;-78
2021/03/07 15:10:50;;;;;;;20.30;11.85;;;8.80;95.20;;;;;;4924622;29;20056;-78
2021/03/07 15:13:17;;;;;;;18.65;12.55;;;8.70;95.30;;;;;;4902555;29;20054;-78
2021/03/07 15:15:49;;;;;;;19.25;12.20;;;8.70;95.70;;;;;;4902883;29;20040;-78
2021/03/07 15:18:21;;;;;;;19.63;12.73;;;8.60;95.60;;;;;;4903281;29;20055;-78
2021/03/07 15:20:47;;;;;;;26.45;13.98;;;8.60;95.60;;;;;;4918211;29;20094;-78
2021/03/07 15:23:14;;;;;;;241.80;102.93;;;8.60;96.20;;;;;;4918187;29;20384;-78
2021/03/07 15:25:46;;;;;;;189.18;71.78;;;8.50;97.30;;;;;;4918121;29;20083;-78
2021/03/07 15:28:13;;;;;;;166.48;78.13;;;8.40;97.00;;;;;;4918007;29;20090;-78
2021/03/07 15:30:39;;;;;;;63.45;35.83;;;8.40;97.70;;;;;;4902385;29;20044;-78
2021/03/07 15:33:11;;;;;;;36.72;24.08;;;8.40;98.40;;;;;;4905435;29;20134;-78
2021/03/07 15:35:38;;;;;;;26.63;17.50;;;8.30;98.80;;;;;;4905533;29;20043;-78
2021/03/07 15:38:09;;;;;;;19.33;13.55;;;8.30;99.20;;;;;;4906876;29;20048;-78
2021/03/07 15:40:41;;;;;;;26.05;15.63;;;8.20;99.30;;;;;;4940134;29;20040;-78
2021/03/07 15:43:15;;;;;;;19.48;13.25;;;8.20;99.90;;;;;;4940239;29;20074;-78
2021/03/07 15:45:50;;;;;;;22.42;14.30;;;8.20;99.80;;;;;;4925422;29;20070;-78
2021/03/07 15:48:22;;;;;;;20.55;13.10;;;8.10;99.90;;;;;;4925038;29;20051;-78
2021/03/07 15:50:58;;;;;;;19.42;12.82;;;8.10;99.90;;;;;;4940189;29;20063;-79
2021/03/07 15:53:32;;;;;;;21.33;12.65;;;8.00;99.90;;;;;;4924995;29;20517;-78
2021/03/07 15:56:04;;;;;;;20.08;13.70;;;8.00;99.90;;;;;;4929570;29;20039;-78